Sollitt, Illinois
Current Conditions -  °F | °C
As of 10:55 AM on Monday 22 Dec 2014 (Local Time) from KIGQ Reporting Station
Light Rain Light Rain  
Wind Chill: 26°   Ceiling: 3300
Heat Index: 34°   Visibility: 4mi
Dew Point: 31°   Wind: 10mph
Humidity: 89%   Direction: 130°SE
Pressure: 29.87"   Gusts: NA
Location:  41.3435°N, 87.6008°W
Report Text: KIGQ 221655Z AUTO 13009KT 4SM -RA OVC033 01/00 A2987 RMK AO2 T00121005
Loading
Personal Weather Stations






























Interactive Weather Map New forecast layout! Learn more

10-Day Weather Forecast

Advertisements
Track Severe Weather on mobile